sensor_id;sensor_type;location;lat;lon;timestamp;pressure;altitude;pressure_sealevel;temperature;humidity
51123;BME280;37162;41.724;13.346;2023-03-21T00:01:26;96675.69;;;17.07;65.01
51123;BME280;37162;41.724;13.346;2023-03-21T00:03:52;96674.84;;;17.07;64.93
51123;BME280;37162;41.724;13.346;2023-03-21T00:06:17;96678.59;;;17.06;65.11
51123;BME280;37162;41.724;13.346;2023-03-21T00:08:43;96664.38;;;17.05;64.97
51123;BME280;37162;41.724;13.346;2023-03-21T00:11:09;96668.94;;;17.05;64.84
51123;BME280;37162;41.724;13.346;2023-03-21T00:13:36;96662.75;;;17.04;65.00
51123;BME280;37162;41.724;13.346;2023-03-21T00:16:13;96665.44;;;17.04;65.03
51123;BME280;37162;41.724;13.346;2023-03-21T00:18:41;96671.59;;;17.05;65.12
51123;BME280;37162;41.724;13.346;2023-03-21T00:21:07;96669.75;;;17.05;65.38
51123;BME280;37162;41.724;13.346;2023-03-21T00:23:34;96679.41;;;17.06;65.43
51123;BME280;37162;41.724;13.346;2023-03-21T00:26:00;96671.38;;;17.06;65.90
51123;BME280;37162;41.724;13.346;2023-03-21T00:28:26;96667.88;;;17.06;65.87
51123;BME280;37162;41.724;13.346;2023-03-21T00:30:59;96660.63;;;17.06;65.68
51123;BME280;37162;41.724;13.346;2023-03-21T00:33:25;96652.22;;;17.03;65.50
51123;BME280;37162;41.724;13.346;2023-03-21T00:35:51;96662.50;;;17.06;65.44
51123;BME280;37162;41.724;13.346;2023-03-21T00:38:19;96655.25;;;17.06;65.12
51123;BME280;37162;41.724;13.346;2023-03-21T00:40:45;96647.44;;;17.05;64.95
51123;BME280;37162;41.724;13.346;2023-03-21T00:43:10;96647.22;;;17.06;65.28
51123;BME280;37162;41.724;13.346;2023-03-21T00:45:36;96651.75;;;17.06;65.24
51123;BME280;37162;41.724;13.346;2023-03-21T00:48:03;96652.56;;;17.06;65.02
51123;BME280;37162;41.724;13.346;2023-03-21T00:50:29;96653.38;;;17.07;65.12
51123;BME280;37162;41.724;13.346;2023-03-21T00:52:56;96645.47;;;17.00;65.00
51123;BME280;37162;41.724;13.346;2023-03-21T00:55:22;96637.06;;;16.97;65.17
51123;BME280;37162;41.724;13.346;2023-03-21T00:57:47;96654.44;;;17.06;65.07
51123;BME280;37162;41.724;13.346;2023-03-21T01:00:14;96641.84;;;17.06;65.08
51123;BME280;37162;41.724;13.346;2023-03-21T01:02:40;96638.59;;;17.04;65.02
51123;BME280;37162;41.724;13.346;2023-03-21T01:05:25;96636.72;;;17.05;64.98
51123;BME280;37162;41.724;13.346;2023-03-21T01:08:19;96619.34;;;16.96;65.04
51123;BME280;37162;41.724;13.346;2023-03-21T01:10:47;96634.84;;;17.05;65.00
51123;BME280;37162;41.724;13.346;2023-03-21T01:13:14;96631.34;;;17.05;64.97
51123;BME280;37162;41.724;13.346;2023-03-21T01:15:59;96622.47;;;17.04;64.85
51123;BME280;37162;41.724;13.346;2023-03-21T01:18:27;96632.97;;;17.06;65.36
51123;BME280;37162;41.724;13.346;2023-03-21T01:20:55;96619.56;;;17.06;65.41
51123;BME280;37162;41.724;13.346;2023-03-21T01:23:24;96602.78;;;16.99;65.67
51123;BME280;37162;41.724;13.346;2023-03-21T01:25:51;96605.06;;;17.07;65.71
51123;BME280;37162;41.724;13.346;2023-03-21T01:28:17;96605.31;;;17.05;65.78
51123;BME280;37162;41.724;13.346;2023-03-21T01:30:49;96601.56;;;17.06;65.54
51123;BME280;37162;41.724;13.346;2023-03-21T01:33:16;96605.31;;;17.05;65.35
51123;BME280;37162;41.724;13.346;2023-03-21T01:35:42;96594.84;;;17.04;65.48
51123;BME280;37162;41.724;13.346;2023-03-21T01:38:08;96606.13;;;17.06;65.36
51123;BME280;37162;41.724;13.346;2023-03-21T01:40:37;96598.09;;;17.06;64.90
51123;BME280;37162;41.724;13.346;2023-03-21T01:48:30;96597.28;;;17.05;65.07
51123;BME280;37162;41.724;13.346;2023-03-21T01:50:57;96592.16;;;17.04;64.93
51123;BME280;37162;41.724;13.346;2023-03-21T01:53:26;96588.41;;;17.05;65.00
51123;BME280;37162;41.724;13.346;2023-03-21T01:56:02;96586.78;;;17.04;64.71
51123;BME280;37162;41.724;13.346;2023-03-21T01:58:28;96587.81;;;17.03;64.96
51123;BME280;37162;41.724;13.346;2023-03-21T02:00:54;96576.41;;;16.96;64.96
51123;BME280;37162;41.724;13.346;2023-03-21T02:03:21;96588.88;;;17.02;64.92
51123;BME280;37162;41.724;13.346;2023-03-21T02:05:55;96591.56;;;17.02;65.05
51123;BME280;37162;41.724;13.346;2023-03-21T02:08:24;96586.09;;;16.97;64.94
51123;BME280;37162;41.724;13.346;2023-03-21T02:10:50;96577.56;;;17.00;64.86
51123;BME280;37162;41.724;13.346;2023-03-21T02:13:16;96586.19;;;17.02;64.92
51123;BME280;37162;41.724;13.346;2023-03-21T02:15:47;96582.69;;;17.01;65.22
51123;BME280;37162;41.724;13.346;2023-03-21T02:24:02;96572.75;;;17.02;65.42
51123;BME280;37162;41.724;13.346;2023-03-21T02:45:47;96578.63;;;16.99;65.32
51123;BME280;37162;41.724;13.346;2023-03-21T02:48:20;96563.56;;;16.98;65.10
51123;BME280;37162;41.724;13.346;2023-03-21T02:50:52;96564.38;;;16.98;65.14
51123;BME280;37162;41.724;13.346;2023-03-21T02:53:22;96562.53;;;16.99;65.14
51123;BME280;37162;41.724;13.346;2023-03-21T02:55:49;96562.53;;;16.99;65.14
51123;BME280;37162;41.724;13.346;2023-03-21T02:58:20;96564.16;;;17.00;65.09
51123;BME280;37162;41.724;13.346;2023-03-21T03:00:47;96562.53;;;16.99;65.26
51123;BME280;37162;41.724;13.346;2023-03-21T03:03:14;96557.16;;;16.99;65.03
51123;BME280;37162;41.724;13.346;2023-03-21T03:05:59;96553.88;;;16.97;64.95
51123;BME280;37162;41.724;13.346;2023-03-21T03:16:32;96549.91;;;16.99;65.23
51123;BME280;37162;41.724;13.346;2023-03-21T03:19:10;96548.03;;;17.00;65.30
51123;BME280;37162;41.724;13.346;2023-03-21T03:26:52;96548.03;;;17.00;65.71
51123;BME280;37162;41.724;13.346;2023-03-21T03:29:20;96551.53;;;17.00;65.41
51123;BME280;37162;41.724;13.346;2023-03-21T03:34:23;96543.50;;;17.00;65.26
51123;BME280;37162;41.724;13.346;2023-03-21T03:36:55;96546.19;;;17.00;65.22
51123;BME280;37162;41.724;13.346;2023-03-21T03:39:26;96549.09;;;16.99;65.25
51123;BME280;37162;41.724;13.346;2023-03-21T03:42:14;96542.69;;;17.00;65.21
51123;BME280;37162;41.724;13.346;2023-03-21T03:44:40;96543.97;;;16.97;64.95
51123;BME280;37162;41.724;13.346;2023-03-21T03:47:33;96547.22;;;16.99;65.15
51123;BME280;37162;41.724;13.346;2023-03-21T03:52:37;96548.84;;;17.00;65.12
51123;BME280;37162;41.724;13.346;2023-03-21T03:55:04;96551.53;;;17.00;64.91
51123;BME280;37162;41.724;13.346;2023-03-21T03:57:30;96552.59;;;16.99;64.98
51123;BME280;37162;41.724;13.346;2023-03-21T03:59:57;96544.56;;;16.99;64.91
51123;BME280;37162;41.724;13.346;2023-03-21T04:02:22;96543.50;;;17.00;64.85
51123;BME280;37162;41.724;13.346;2023-03-21T04:04:48;96536.97;;;16.96;64.83
51123;BME280;37162;41.724;13.346;2023-03-21T04:07:17;96543.75;;;16.99;64.88
51123;BME280;37162;41.724;13.346;2023-03-21T04:09:43;96551.78;;;16.99;65.08
51123;BME280;37162;41.724;13.346;2023-03-21T04:12:10;96552.59;;;16.99;64.92
51123;BME280;37162;41.724;13.346;2023-03-21T04:14:36;96536.88;;;16.91;65.26
51123;BME280;37162;41.724;13.346;2023-03-21T04:17:02;96558.78;;;17.00;65.50
51123;BME280;37162;41.724;13.346;2023-03-21T04:19:28;96547.44;;;16.98;65.68
51123;BME280;37162;41.724;13.346;2023-03-21T04:21:54;96557.16;;;16.99;65.62
51123;BME280;37162;41.724;13.346;2023-03-21T04:24:19;96551.78;;;16.99;65.35
51123;BME280;37162;41.724;13.346;2023-03-21T04:26:45;96560.88;;;16.98;65.10
51123;BME280;37162;41.724;13.346;2023-03-21T04:29:10;96553.41;;;17.00;65.30
51123;BME280;37162;41.724;13.346;2023-03-21T04:31:36;96557.16;;;16.99;65.66
51123;BME280;37162;41.724;13.346;2023-03-21T04:34:03;96546.41;;;16.99;65.47
51123;BME280;37162;41.724;13.346;2023-03-21T04:36:35;96548.50;;;16.97;65.51
51123;BME280;37162;41.724;13.346;2023-03-21T04:39:07;96545.81;;;16.97;65.56
51123;BME280;37162;41.724;13.346;2023-03-21T04:41:43;96533.84;;;16.88;65.39
51123;BME280;37162;41.724;13.346;2023-03-21T04:44:10;96556.00;;;16.95;65.17
51123;BME280;37162;41.724;13.346;2023-03-21T04:46:37;96552.50;;;16.94;65.10
51123;BME280;37162;41.724;13.346;2023-03-21T04:49:03;96544.44;;;16.94;64.96
51123;BME280;37162;41.724;13.346;2023-03-21T04:51:29;96550.84;;;16.93;64.98
51123;BME280;37162;41.724;13.346;2023-03-21T04:53:55;96558.09;;;16.93;65.06
51123;BME280;37162;41.724;13.346;2023-03-21T04:56:24;96551.00;;;16.86;65.06
51123;BME280;37162;41.724;13.346;2023-03-21T04:59:00;96559.16;;;16.92;64.78
51123;BME280;37162;41.724;13.346;2023-03-21T05:01:26;96567.19;;;16.92;64.88
51123;BME280;37162;41.724;13.346;2023-03-21T05:03:56;96561.81;;;16.92;64.98
51123;BME280;37162;41.724;13.346;2023-03-21T05:06:22;96566.38;;;16.91;65.10
51123;BME280;37162;41.724;13.346;2023-03-21T05:08:47;96553.31;;;16.83;65.06
51123;BME280;37162;41.724;13.346;2023-03-21T05:11:13;96567.19;;;16.92;65.26
51123;BME280;37162;41.724;13.346;2023-03-21T05:13:38;96561.81;;;16.92;65.20
51123;BME280;37162;41.724;13.346;2023-03-21T05:16:04;96554.59;;;16.92;65.22
51123;BME280;37162;41.724;13.346;2023-03-21T05:18:30;96564.25;;;16.93;65.47
51123;BME280;37162;41.724;13.346;2023-03-21T05:20:59;96561.38;;;16.95;65.37
51123;BME280;37162;41.724;13.346;2023-03-21T05:23:24;96557.03;;;16.94;65.42
51123;BME280;37162;41.724;13.346;2023-03-21T05:25:50;96552.16;;;16.91;65.34
51123;BME280;37162;41.724;13.346;2023-03-21T05:28:16;96550.84;;;16.93;64.85
51123;BME280;37162;41.724;13.346;2023-03-21T05:30:45;96548.97;;;16.94;65.05
51123;BME280;37162;41.724;13.346;2023-03-21T05:33:11;96543.59;;;16.94;65.21
51123;BME280;37162;41.724;13.346;2023-03-21T05:35:37;96534.34;;;16.84;64.91
51123;BME280;37162;41.724;13.346;2023-03-21T05:38:02;96553.31;;;16.95;65.08
51123;BME280;37162;41.724;13.346;2023-03-21T05:40:28;96541.78;;;16.94;64.98
51123;BME280;37162;41.724;13.346;2023-03-21T05:42:53;96544.44;;;16.94;64.92
51123;BME280;37162;41.724;13.346;2023-03-21T05:45:19;96537.22;;;16.95;64.73
51123;BME280;37162;41.724;13.346;2023-03-21T05:47:44;96535.34;;;16.95;64.63
51123;BME280;37162;41.724;13.346;2023-03-21T05:50:11;96535.25;;;16.90;64.77
51123;BME280;37162;41.724;13.346;2023-03-21T05:52:37;96541.78;;;16.94;64.86
51123;BME280;37162;41.724;13.346;2023-03-21T05:55:04;96546.78;;;16.91;64.52
51123;BME280;37162;41.724;13.346;2023-03-21T05:57:29;96546.88;;;16.96;64.67
51123;BME280;37162;41.724;13.346;2023-03-21T05:59:57;96553.31;;;16.95;64.66
51123;BME280;37162;41.724;13.346;2023-03-21T06:02:22;96548.88;;;16.89;64.55
51123;BME280;37162;41.724;13.346;2023-03-21T06:04:48;96558.69;;;16.95;64.47
51123;BME280;37162;41.724;13.346;2023-03-21T06:07:13;96565.06;;;16.94;64.66
51123;BME280;37162;41.724;13.346;2023-03-21T06:09:38;96550.03;;;16.93;64.68
51123;BME280;37162;41.724;13.346;2023-03-21T06:12:04;96552.50;;;16.94;64.87
51123;BME280;37162;41.724;13.346;2023-03-21T06:14:30;96537.81;;;16.85;64.90
51123;BME280;37162;41.724;13.346;2023-03-21T06:16:55;96560.31;;;16.96;64.94
51123;BME280;37162;41.724;13.346;2023-03-21T06:19:21;96547.59;;;16.91;64.82
51123;BME280;37162;41.724;13.346;2023-03-21T06:21:47;96563.00;;;16.96;65.06
51123;BME280;37162;41.724;13.346;2023-03-21T06:24:13;96554.34;;;16.94;65.05
51123;BME280;37162;41.724;13.346;2023-03-21T06:26:39;96559.50;;;16.95;65.06
51123;BME280;37162;41.724;13.346;2023-03-21T06:29:06;96549.94;;;16.88;64.75
51123;BME280;37162;41.724;13.346;2023-03-21T06:31:32;96566.72;;;16.95;64.74
51123;BME280;37162;41.724;13.346;2023-03-21T06:33:57;96575.59;;;16.95;64.71
51123;BME280;37162;41.724;13.346;2023-03-21T06:36:23;96572.09;;;16.95;64.62
51123;BME280;37162;41.724;13.346;2023-03-21T06:38:48;96570.44;;;16.94;64.88
51123;BME280;37162;41.724;13.346;2023-03-21T06:41:14;96573.97;;;16.94;64.73
51123;BME280;37162;41.724;13.346;2023-03-21T06:43:40;96575.81;;;16.94;64.54
51123;BME280;37162;41.724;13.346;2023-03-21T06:46:06;96572.31;;;16.93;64.59
51123;BME280;37162;41.724;13.346;2023-03-21T06:48:31;96556.13;;;16.88;64.57
51123;BME280;37162;41.724;13.346;2023-03-21T06:50:57;96573.38;;;16.92;64.64
51123;BME280;37162;41.724;13.346;2023-03-21T06:53:24;96579.81;;;16.91;64.69
51123;BME280;37162;41.724;13.346;2023-03-21T06:55:52;96575.25;;;16.92;64.47
51123;BME280;37162;41.724;13.346;2023-03-21T06:58:19;96577.13;;;16.91;64.59
51123;BME280;37162;41.724;13.346;2023-03-21T07:00:44;96583.28;;;16.92;64.63
51123;BME280;37162;41.724;13.346;2023-03-21T07:03:11;96590.53;;;16.91;64.56
51123;BME280;37162;41.724;13.346;2023-03-21T07:05:37;96593.22;;;16.91;64.77
51123;BME280;37162;41.724;13.346;2023-03-21T07:08:04;96592.41;;;16.91;64.70
51123;BME280;37162;41.724;13.346;2023-03-21T07:10:30;96592.41;;;16.91;64.67
51123;BME280;37162;41.724;13.346;2023-03-21T07:12:57;96593.22;;;16.91;64.67
51123;BME280;37162;41.724;13.346;2023-03-21T07:15:23;96602.09;;;16.92;64.81
51123;BME280;37162;41.724;13.346;2023-03-21T07:17:48;96593.94;;;16.86;64.77
51123;BME280;37162;41.724;13.346;2023-03-21T07:20:13;96612.81;;;16.92;64.92
51123;BME280;37162;41.724;13.346;2023-03-21T07:22:39;96612.56;;;16.93;64.64
51123;BME280;37162;41.724;13.346;2023-03-21T07:25:06;96608.25;;;16.92;64.66
51123;BME280;37162;41.724;13.346;2023-03-21T07:27:32;96616.06;;;16.94;64.52
51123;BME280;37162;41.724;13.346;2023-03-21T07:29:58;96612.09;;;16.96;65.27
51123;BME280;37162;41.724;13.346;2023-03-21T07:32:23;96606.16;;;16.94;65.34
51123;BME280;37162;41.724;13.346;2023-03-21T07:34:54;96615.25;;;16.93;65.00
51123;BME280;37162;41.724;13.346;2023-03-21T07:37:20;96607.19;;;16.93;64.98
51123;BME280;37162;41.724;13.346;2023-03-21T07:39:45;96622.28;;;16.94;64.90
51123;BME280;37162;41.724;13.346;2023-03-21T07:42:11;96622.28;;;16.94;64.85
51123;BME280;37162;41.724;13.346;2023-03-21T07:44:36;96627.84;;;16.93;64.72
51123;BME280;37162;41.724;13.346;2023-03-21T07:47:03;96634.63;;;16.95;64.82
51123;BME280;37162;41.724;13.346;2023-03-21T07:49:28;96615.03;;;16.83;64.72
51123;BME280;37162;41.724;13.346;2023-03-21T07:51:54;96630.88;;;16.96;64.69
51123;BME280;37162;41.724;13.346;2023-03-21T07:54:19;96625.53;;;16.96;64.72
51123;BME280;37162;41.724;13.346;2023-03-21T07:56:46;96629.03;;;16.97;64.60
51123;BME280;37162;41.724;13.346;2023-03-21T07:59:12;96630.66;;;16.98;64.77
51123;BME280;37162;41.724;13.346;2023-03-21T08:01:37;96630.19;;;17.01;64.52
51123;BME280;37162;41.724;13.346;2023-03-21T08:04:03;96625.63;;;17.01;64.19
51123;BME280;37162;41.724;13.346;2023-03-21T08:06:28;96618.38;;;17.02;64.56
51123;BME280;37162;41.724;13.346;2023-03-21T08:08:57;96628.75;;;17.10;64.40
51123;BME280;37162;41.724;13.346;2023-03-21T08:11:22;96620.97;;;17.08;64.27
51123;BME280;37162;41.724;13.346;2023-03-21T08:13:48;96624.91;;;17.18;64.26
51123;BME280;37162;41.724;13.346;2023-03-21T08:16:16;96615.09;;;17.23;64.76
51123;BME280;37162;41.724;13.346;2023-03-21T08:18:41;96617.63;;;17.30;63.89
51123;BME280;37162;41.724;13.346;2023-03-21T08:21:07;96609.00;;;17.28;63.67
51123;BME280;37162;41.724;13.346;2023-03-21T08:23:32;96616.34;;;17.32;62.88
51123;BME280;37162;41.724;13.346;2023-03-21T08:25:59;96622.28;;;17.34;63.14
51123;BME280;37162;41.724;13.346;2023-03-21T08:28:25;96617.50;;;17.36;62.77
51123;BME280;37162;41.724;13.346;2023-03-21T08:30:51;96622.38;;;17.40;63.03
51123;BME280;37162;41.724;13.346;2023-03-21T08:33:16;96612.22;;;17.42;62.95
51123;BME280;37162;41.724;13.346;2023-03-21T08:35:43;96612.78;;;17.44;62.97
51123;BME280;37162;41.724;13.346;2023-03-21T08:38:08;96611.50;;;17.46;62.81
51123;BME280;37162;41.724;13.346;2023-03-21T08:40:34;96608.56;;;17.48;62.76
51123;BME280;37162;41.724;13.346;2023-03-21T08:43:00;96613.22;;;17.52;62.89
51123;BME280;37162;41.724;13.346;2023-03-21T08:45:25;96616.47;;;17.54;62.82
51123;BME280;37162;41.724;13.346;2023-03-21T08:47:52;96613.31;;;17.57;62.96
51123;BME280;37162;41.724;13.346;2023-03-21T08:50:23;96620.09;;;17.60;63.04
51123;BME280;37162;41.724;13.346;2023-03-21T08:52:49;96621.22;;;17.64;63.11
51123;BME280;37162;41.724;13.346;2023-03-21T08:55:16;96615.63;;;17.66;62.99
51123;BME280;37162;41.724;13.346;2023-03-21T08:57:43;96620.50;;;17.69;63.03
51123;BME280;37162;41.724;13.346;2023-03-21T09:00:11;96614.66;;;17.72;63.25
51123;BME280;37162;41.724;13.346;2023-03-21T09:02:39;96615.28;;;17.74;63.03
51123;BME280;37162;41.724;13.346;2023-03-21T09:05:05;96615.84;;;17.76;63.01
51123;BME280;37162;41.724;13.346;2023-03-21T09:07:32;96616.41;;;17.78;63.00
51123;BME280;37162;41.724;13.346;2023-03-21T09:10:03;96611.94;;;17.83;62.87
51123;BME280;37162;41.724;13.346;2023-03-21T09:12:30;96621.03;;;17.82;61.99
51123;BME280;37162;41.724;13.346;2023-03-21T09:14:55;96622.69;;;17.83;62.35
51123;BME280;37162;41.724;13.346;2023-03-21T09:17:21;96621.38;;;17.86;62.51
51123;BME280;37162;41.724;13.346;2023-03-21T09:19:46;96617.63;;;17.87;62.27
51123;BME280;37162;41.724;13.346;2023-03-21T09:22:13;96617.41;;;17.88;62.37
51123;BME280;37162;41.724;13.346;2023-03-21T09:24:45;96618.78;;;17.91;62.29
51123;BME280;37162;41.724;13.346;2023-03-21T09:27:12;96605.13;;;17.93;62.10
51123;BME280;37162;41.724;13.346;2023-03-21T09:29:38;96609.19;;;17.95;62.05
51123;BME280;37162;41.724;13.346;2023-03-21T09:32:07;96615.97;;;17.98;62.25
51123;BME280;37162;41.724;13.346;2023-03-21T09:34:33;96610.31;;;17.99;62.07
51123;BME280;37162;41.724;13.346;2023-03-21T09:37:02;96602.25;;;17.99;62.23
51123;BME280;37162;41.724;13.346;2023-03-21T09:39:27;96604.47;;;18.02;62.12
51123;BME280;37162;41.724;13.346;2023-03-21T09:44:40;96604.78;;;18.06;62.27
51123;BME280;37162;41.724;13.346;2023-03-21T09:47:21;96606.44;;;18.07;62.17
51123;BME280;37162;41.724;13.346;2023-03-21T09:50:16;96609.69;;;18.09;62.11
51123;BME280;37162;41.724;13.346;2023-03-21T09:52:55;96609.69;;;18.09;62.03
51123;BME280;37162;41.724;13.346;2023-03-21T09:55:33;96610.75;;;18.08;62.15
51123;BME280;37162;41.724;13.346;2023-03-21T09:58:05;96605.38;;;18.08;62.27
51123;BME280;37162;41.724;13.346;2023-03-21T10:00:39;96608.06;;;18.08;62.21
51123;BME280;37162;41.724;13.346;2023-03-21T10:03:31;96612.03;;;18.05;62.36
51123;BME280;37162;41.724;13.346;2023-03-21T10:06:01;96613.19;;;18.09;62.16
51123;BME280;37162;41.724;13.346;2023-03-21T10:08:36;96609.13;;;18.07;62.07
51123;BME280;37162;41.724;13.346;2023-03-21T10:11:12;96605.72;;;18.11;62.20
51123;BME280;37162;41.724;13.346;2023-03-21T10:13:43;96614.06;;;18.15;62.29
51123;BME280;37162;41.724;13.346;2023-03-21T10:16:16;96610.09;;;18.18;62.05
51123;BME280;37162;41.724;13.346;2023-03-21T10:18:43;96609.59;;;18.21;62.25
51123;BME280;37162;41.724;13.346;2023-03-21T10:21:19;96602.59;;;18.20;62.05
51123;BME280;37162;41.724;13.346;2023-03-21T10:23:45;96607.50;;;18.23;61.99
51123;BME280;37162;41.724;13.346;2023-03-21T10:26:12;96611.53;;;18.25;62.01
51123;BME280;37162;41.724;13.346;2023-03-21T10:28:39;96597.78;;;18.22;61.78
51123;BME280;37162;41.724;13.346;2023-03-21T10:31:07;96605.44;;;18.30;61.97
51123;BME280;37162;41.724;13.346;2023-03-21T10:33:36;96609.78;;;18.31;61.73
51123;BME280;37162;41.724;13.346;2023-03-21T10:36:06;96617.34;;;18.34;61.76
51123;BME280;37162;41.724;13.346;2023-03-21T10:38:34;96607.91;;;18.31;61.88
51123;BME280;37162;41.724;13.346;2023-03-21T10:41:01;96610.41;;;18.38;61.75
51123;BME280;37162;41.724;13.346;2023-03-21T10:45:54;96616.69;;;18.44;61.49
51123;BME280;37162;41.724;13.346;2023-03-21T10:48:21;96612.63;;;18.41;60.05
51123;BME280;37162;41.724;13.346;2023-03-21T10:50:50;96608.88;;;18.42;60.85
51123;BME280;37162;41.724;13.346;2023-03-21T10:53:17;96612.38;;;18.43;61.69
51123;BME280;37162;41.724;13.346;2023-03-21T10:55:47;96611.06;;;18.45;61.91
51123;BME280;37162;41.724;13.346;2023-03-21T10:58:17;96605.38;;;18.42;62.15
51123;BME280;37162;41.724;13.346;2023-03-21T11:00:53;96610.56;;;18.48;62.40
51123;BME280;37162;41.724;13.346;2023-03-21T11:03:27;96604.94;;;18.50;62.26
51123;BME280;37162;41.724;13.346;2023-03-21T11:06:02;96599.31;;;18.51;62.13
51123;BME280;37162;41.724;13.346;2023-03-21T11:08:29;96601.75;;;18.53;62.26
51123;BME280;37162;41.724;13.346;2023-03-21T11:13:33;96603.97;;;18.56;62.06
51123;BME280;37162;41.724;13.346;2023-03-21T11:16:18;96606.66;;;18.56;61.84
51123;BME280;37162;41.724;13.346;2023-03-21T11:18:49;96601.00;;;18.57;61.85
51123;BME280;37162;41.724;13.346;2023-03-21T11:21:16;96604.50;;;18.58;61.82
51123;BME280;37162;41.724;13.346;2023-03-21T11:23:44;96595.41;;;18.59;61.87
51123;BME280;37162;41.724;13.346;2023-03-21T11:26:34;96594.34;;;18.60;61.77
51123;BME280;37162;41.724;13.346;2023-03-21T11:29:16;96595.16;;;18.60;61.96
51123;BME280;37162;41.724;13.346;2023-03-21T11:31:43;96597.84;;;18.60;62.02
51123;BME280;37162;41.724;13.346;2023-03-21T11:34:24;96581.38;;;18.57;61.91
51123;BME280;37162;41.724;13.346;2023-03-21T11:36:51;96574.09;;;18.57;61.84
51123;BME280;37162;41.724;13.346;2023-03-21T11:39:30;96577.13;;;18.61;62.05
51123;BME280;37162;41.724;13.346;2023-03-21T11:41:57;96576.88;;;18.62;62.20
51123;BME280;37162;41.724;13.346;2023-03-21T11:44:42;96572.56;;;18.61;61.94
51123;BME280;37162;41.724;13.346;2023-03-21T11:47:09;96574.19;;;18.62;61.84
51123;BME280;37162;41.724;13.346;2023-03-21T11:49:35;96575.81;;;18.63;61.93
51123;BME280;37162;41.724;13.346;2023-03-21T11:52:40;96565.06;;;18.63;62.04
51123;BME280;37162;41.724;13.346;2023-03-21T12:00:47;96558.28;;;18.61;62.04
51123;BME280;37162;41.724;13.346;2023-03-21T12:03:46;96549.41;;;18.60;61.90
51123;BME280;37162;41.724;13.346;2023-03-21T12:06:31;96548.59;;;18.60;61.90
51123;BME280;37162;41.724;13.346;2023-03-21T12:11:57;96553.97;;;18.60;62.02
51123;BME280;37162;41.724;13.346;2023-03-21T12:14:42;96548.34;;;18.61;61.93
51123;BME280;37162;41.724;13.346;2023-03-21T12:25:46;96526.06;;;18.66;61.69
51123;BME280;37162;41.724;13.346;2023-03-21T12:31:10;96525.50;;;18.64;61.61
51123;BME280;37162;41.724;13.346;2023-03-21T12:39:26;96521.63;;;18.55;61.45
51123;BME280;37162;41.724;13.346;2023-03-21T12:44:23;96522.31;;;18.45;61.69
51123;BME280;37162;41.724;13.346;2023-03-21T12:46:56;96520.91;;;18.43;61.43
51123;BME280;37162;41.724;13.346;2023-03-21T12:49:32;96523.28;;;18.39;61.18
51123;BME280;37162;41.724;13.346;2023-03-21T12:52:15;96516.78;;;18.35;61.31
51123;BME280;37162;41.724;13.346;2023-03-21T12:54:46;96516.47;;;18.31;61.34
51123;BME280;37162;41.724;13.346;2023-03-21T12:57:16;96517.19;;;18.27;61.24
51123;BME280;37162;41.724;13.346;2023-03-21T13:05:07;96525.94;;;18.17;61.07
51123;BME280;37162;41.724;13.346;2023-03-21T13:07:36;96521.03;;;18.14;61.59
51123;BME280;37162;41.724;13.346;2023-03-21T13:10:11;96515.09;;;18.12;61.79
51123;BME280;37162;41.724;13.346;2023-03-21T13:13:15;96513.47;;;18.11;62.45
51123;BME280;37162;41.724;13.346;2023-03-21T13:21:18;96495.06;;;18.03;63.50
51123;BME280;37162;41.724;13.346;2023-03-21T13:24:02;96493.94;;;17.99;63.62
51123;BME280;37162;41.724;13.346;2023-03-21T13:26:33;96487.41;;;17.95;63.18
51123;BME280;37162;41.724;13.346;2023-03-21T13:29:00;96494.16;;;17.97;63.11
51123;BME280;37162;41.724;13.346;2023-03-21T13:31:26;96486.34;;;17.96;63.48
51123;BME280;37162;41.724;13.346;2023-03-21T13:33:54;96483.91;;;17.94;63.32
51123;BME280;37162;41.724;13.346;2023-03-21T13:36:25;96482.31;;;17.93;63.39
51123;BME280;37162;41.724;13.346;2023-03-21T13:38:54;96480.66;;;17.92;63.45
51123;BME280;37162;41.724;13.346;2023-03-21T13:41:44;96479.28;;;17.90;63.56
51123;BME280;37162;41.724;13.346;2023-03-21T13:44:37;96486.75;;;17.87;63.67
51123;BME280;37162;41.724;13.346;2023-03-21T13:47:21;96485.13;;;17.86;63.87
51123;BME280;37162;41.724;13.346;2023-03-21T13:52:38;96484.81;;;17.83;63.97
51123;BME280;37162;41.724;13.346;2023-03-21T13:55:14;96477.81;;;17.82;64.00
51123;BME280;37162;41.724;13.346;2023-03-21T13:57:40;96473.50;;;17.81;64.20
51123;BME280;37162;41.724;13.346;2023-03-21T14:00:26;96474.56;;;17.80;64.14
51123;BME280;37162;41.724;13.346;2023-03-21T14:02:59;96476.44;;;17.79;63.91
51123;BME280;37162;41.724;13.346;2023-03-21T14:05:29;96466.44;;;17.75;63.97
51123;BME280;37162;41.724;13.346;2023-03-21T14:08:07;96470.25;;;17.79;63.65
51123;BME280;37162;41.724;13.346;2023-03-21T14:10:46;96473.16;;;17.77;63.76
51123;BME280;37162;41.724;13.346;2023-03-21T14:13:20;96476.66;;;17.78;63.55
51123;BME280;37162;41.724;13.346;2023-03-21T14:15:51;96463.97;;;17.73;63.52
51123;BME280;37162;41.724;13.346;2023-03-21T14:18:22;96471.28;;;17.78;63.65
51123;BME280;37162;41.724;13.346;2023-03-21T14:20:56;96467.78;;;17.77;63.77
51123;BME280;37162;41.724;13.346;2023-03-21T14:23:23;96473.97;;;17.78;64.04
51123;BME280;37162;41.724;13.346;2023-03-21T14:25:49;96466.97;;;17.77;63.97
51123;BME280;37162;41.724;13.346;2023-03-21T14:28:21;96464.28;;;17.77;63.96
51123;BME280;37162;41.724;13.346;2023-03-21T14:30:53;96468.06;;;17.76;63.80
51123;BME280;37162;41.724;13.346;2023-03-21T14:33:28;96473.41;;;17.76;63.98
51123;BME280;37162;41.724;13.346;2023-03-21T14:36:03;96460.69;;;17.71;63.94
51123;BME280;37162;41.724;13.346;2023-03-21T14:38:36;96462.94;;;17.74;64.06
51123;BME280;37162;41.724;13.346;2023-03-21T14:41:02;96466.66;;;17.73;64.23